createdAt,value
2018-07-06T00:01:36.099Z,24.10
2018-07-06T00:06:38.574Z,26.07
2018-07-06T00:11:41.037Z,25.50
2018-07-06T00:16:43.423Z,24.07
2018-07-06T00:21:45.681Z,27.47
2018-07-06T00:26:48.042Z,24.97
2018-07-06T00:31:50.711Z,26.10
2018-07-06T00:36:53.079Z,26.30
2018-07-06T00:41:55.435Z,27.77
2018-07-06T00:46:57.879Z,26.60
2018-07-06T00:52:00.263Z,29.13
2018-07-06T00:57:02.587Z,28.87
2018-07-06T01:02:04.982Z,27.67
2018-07-06T01:07:07.447Z,31.37
2018-07-06T01:12:15.695Z,28.53
2018-07-06T01:17:18.243Z,29.10
2018-07-06T01:22:20.789Z,30.07
2018-07-06T01:27:23.342Z,31.37
2018-07-06T01:32:25.713Z,30.97
2018-07-06T01:37:28.152Z,32.20
2018-07-06T01:42:30.531Z,31.67
2018-07-06T01:47:32.943Z,33.80
2018-07-06T01:52:35.379Z,31.67
2018-07-06T01:57:37.705Z,32.90
2018-07-06T02:02:40.476Z,33.73
2018-07-06T02:07:42.839Z,32.20
2018-07-06T02:12:45.199Z,33.30
2018-07-06T02:17:47.570Z,33.57
2018-07-06T02:22:49.968Z,35.00
2018-07-06T02:27:52.732Z,36.87
2018-07-06T02:32:55.393Z,34.77
2018-07-06T02:37:58.064Z,35.53
2018-07-06T02:43:00.564Z,34.63
2018-07-06T02:48:03.052Z,35.97
2018-07-06T02:53:05.605Z,35.33
2018-07-06T02:58:08.061Z,31.90
2018-07-06T03:03:10.722Z,31.97
2018-07-06T03:08:13.390Z,30.60
2018-07-06T03:13:15.772Z,31.37
2018-07-06T03:18:18.097Z,30.57
2018-07-06T03:23:20.785Z,28.55
2018-07-06T03:28:23.382Z,27.50
2018-07-06T03:33:25.795Z,31.15
2018-07-06T03:38:28.183Z,30.23
2018-07-06T03:43:30.554Z,30.30
2018-07-06T03:48:32.942Z,32.03
2018-07-06T03:53:35.503Z,29.20
2018-07-06T03:58:37.844Z,29.67
2018-07-06T04:03:40.213Z,27.47
2018-07-06T04:08:42.646Z,27.10
2018-07-06T04:13:45.116Z,28.73
2018-07-06T04:18:47.683Z,27.30
2018-07-06T04:23:50.084Z,26.43
2018-07-06T04:28:52.790Z,25.87
2018-07-06T04:33:55.348Z,24.43
2018-07-06T04:38:57.939Z,23.07
2018-07-06T04:44:00.285Z,23.53
2018-07-06T04:49:02.719Z,22.67
2018-07-06T04:54:05.051Z,21.97
2018-07-06T04:59:07.613Z,24.97
2018-07-06T05:04:10.834Z,21.95
2018-07-06T05:09:13.410Z,22.93
2018-07-06T05:14:15.875Z,21.97
2018-07-06T05:19:18.254Z,22.33
2018-07-06T05:24:20.616Z,22.47
2018-07-06T05:29:22.968Z,23.83
2018-07-06T05:34:25.414Z,22.77
2018-07-06T05:39:27.776Z,22.20
2018-07-06T05:44:30.251Z,22.07
2018-07-06T05:49:32.699Z,21.33
2018-07-06T05:54:35.125Z,21.90
2018-07-06T05:59:37.699Z,20.60
2018-07-06T06:04:40.191Z,20.23
2018-07-06T06:09:36.995Z,19.10
2018-07-06T06:14:33.901Z,18.93
2018-07-06T06:19:30.647Z,20.27
2018-07-06T06:24:27.390Z,20.75
2018-07-06T06:29:24.250Z,18.93
2018-07-06T06:34:21.261Z,18.80
2018-07-06T06:39:18.018Z,19.47
2018-07-06T06:44:14.823Z,19.35
2018-07-06T06:49:11.780Z,18.40
2018-07-06T06:54:08.598Z,20.20
2018-07-06T06:59:05.379Z,20.00
2018-07-06T07:04:02.251Z,19.82
2018-07-06T07:08:59.143Z,19.12
2018-07-06T07:13:56.070Z,20.43
2018-07-06T07:18:52.808Z,21.07
2018-07-06T07:23:49.695Z,20.02
2018-07-06T07:28:46.620Z,20.82
2018-07-06T07:33:43.430Z,20.57
2018-07-06T07:38:40.364Z,21.00
2018-07-06T07:43:37.214Z,19.62
2018-07-06T07:48:34.104Z,20.92
2018-07-06T07:53:36.777Z,19.60
2018-07-06T07:58:33.648Z,19.73
2018-07-06T08:03:30.547Z,17.15
2018-07-06T08:08:27.381Z,16.25
2018-07-06T08:13:24.321Z,15.72
2018-07-06T08:18:21.121Z,17.60
2018-07-06T08:23:18.074Z,16.48
2018-07-06T08:28:15.158Z,18.60
2018-07-06T08:33:11.982Z,19.35
2018-07-06T08:38:08.784Z,19.48
2018-07-06T08:43:06.184Z,20.32
2018-07-06T08:48:02.956Z,19.80
2018-07-06T08:52:59.724Z,18.73
2018-07-06T08:57:57.654Z,19.02
2018-07-06T09:02:54.390Z,18.30
2018-07-06T09:07:51.134Z,17.65
2018-07-06T09:12:48.961Z,19.80
2018-07-06T09:17:45.740Z,20.10
2018-07-06T09:22:42.698Z,19.27
2018-07-06T09:27:39.490Z,19.87
2018-07-06T09:32:36.251Z,21.97
2018-07-06T09:37:33.042Z,19.62
2018-07-06T09:42:29.895Z,19.95
2018-07-06T09:47:26.675Z,20.27
2018-07-06T09:52:23.497Z,20.25
2018-07-06T09:57:20.343Z,23.77
2018-07-06T10:02:17.209Z,24.85
2018-07-06T10:07:14.047Z,23.22
2018-07-06T10:12:10.880Z,21.70
2018-07-06T10:17:07.740Z,20.48
2018-07-06T10:22:04.959Z,20.08
2018-07-06T10:27:01.727Z,19.75
2018-07-06T10:32:03.071Z,17.70
2018-07-06T10:36:59.870Z,17.98
2018-07-06T10:41:56.733Z,15.88
2018-07-06T10:46:53.547Z,14.40
2018-07-06T10:51:50.298Z,13.43
2018-07-06T10:56:47.193Z,13.58
2018-07-06T11:01:44.106Z,13.40
2018-07-06T11:06:40.920Z,13.50
2018-07-06T11:11:37.766Z,14.85
2018-07-06T11:16:34.531Z,13.58
2018-07-06T11:21:31.310Z,11.60
2018-07-06T11:26:28.055Z,11.43
2018-07-06T11:31:24.855Z,11.20
2018-07-06T11:36:21.755Z,10.05
2018-07-06T11:41:18.522Z,9.58
2018-07-06T11:46:15.343Z,9.30
2018-07-06T11:51:12.076Z,8.60
2018-07-06T11:56:09.175Z,8.40
2018-07-06T12:01:06.120Z,8.18
2018-07-06T12:06:02.950Z,9.13
2018-07-06T12:10:59.728Z,14.07
2018-07-06T12:15:56.506Z,6.42
2018-07-06T12:20:53.409Z,8.60
2018-07-06T12:25:50.155Z,6.17
2018-07-06T12:30:47.120Z,6.50
2018-07-06T12:35:43.924Z,5.15
2018-07-06T12:40:40.867Z,6.47
2018-07-06T12:45:37.711Z,5.62
2018-07-06T12:50:34.553Z,6.03
2018-07-06T12:55:31.954Z,5.50
2018-07-06T13:00:28.755Z,4.20
2018-07-06T13:05:32.230Z,3.40
2018-07-06T13:10:29.149Z,4.37
2018-07-06T13:15:26.043Z,4.03
2018-07-06T13:20:22.838Z,3.50
2018-07-06T13:25:19.737Z,3.35
2018-07-06T13:30:16.727Z,3.40
2018-07-06T13:35:13.513Z,3.17
2018-07-06T13:40:10.437Z,2.62
2018-07-06T13:45:07.227Z,2.95
2018-07-06T13:50:04.818Z,6.55
2018-07-06T13:55:01.630Z,2.52
2018-07-06T13:59:58.424Z,2.90
2018-07-06T14:04:55.191Z,2.60
2018-07-06T14:09:52.047Z,7.15
2018-07-06T14:14:48.855Z,2.30
2018-07-06T14:19:45.617Z,2.47
2018-07-06T14:24:42.535Z,2.47
2018-07-06T14:29:39.653Z,2.17
2018-07-06T14:34:36.484Z,2.15
2018-07-06T14:39:33.223Z,2.40
2018-07-06T14:44:30.634Z,2.65
2018-07-06T14:49:27.397Z,2.00
2018-07-06T14:59:57.502Z,2.17
2018-07-06T15:04:54.364Z,2.15
2018-07-06T15:09:51.180Z,2.40
2018-07-06T15:14:48.001Z,2.00
2018-07-06T15:19:44.812Z,1.75
2018-07-06T15:24:41.675Z,2.12
2018-07-06T15:29:38.593Z,1.82
2018-07-06T15:34:35.703Z,1.75
2018-07-06T15:39:32.513Z,1.90
2018-07-06T15:44:29.364Z,1.85
2018-07-06T15:49:25.030Z,1.72
2018-07-06T15:54:20.663Z,1.90
2018-07-06T15:59:16.327Z,1.72
2018-07-06T16:04:12.112Z,2.00
2018-07-06T16:09:07.750Z,2.00
2018-07-06T16:14:03.416Z,2.05
2018-07-06T16:18:59.073Z,1.77
2018-07-06T16:23:54.733Z,1.80
2018-07-06T16:28:50.392Z,1.65
2018-07-06T16:33:46.805Z,3.02
2018-07-06T16:38:43.085Z,1.90
2018-07-06T16:43:39.573Z,1.55
2018-07-06T16:48:36.707Z,1.70
2018-07-06T16:53:33.557Z,1.62
2018-07-06T16:58:30.584Z,1.77
2018-07-06T17:03:27.410Z,5.78
2018-07-06T17:08:24.278Z,7.37
2018-07-06T17:13:21.011Z,1.90
2018-07-06T17:18:18.607Z,1.87
2018-07-06T17:23:15.519Z,1.75
2018-07-06T17:28:12.393Z,2.02
2018-07-06T17:33:09.282Z,2.17
2018-07-06T17:38:06.277Z,2.22
2018-07-06T17:43:03.014Z,1.80
2018-07-06T17:47:59.825Z,7.55
2018-07-06T17:52:56.647Z,2.22
2018-07-06T17:57:53.452Z,2.35
2018-07-06T18:02:50.295Z,2.80
2018-07-06T18:07:47.166Z,2.27
2018-07-06T18:12:44.041Z,2.45
2018-07-06T18:17:40.917Z,5.20
2018-07-06T18:22:37.821Z,3.00
2018-07-06T18:27:34.693Z,2.52
2018-07-06T18:32:31.717Z,3.30
2018-07-06T18:37:28.572Z,3.08
2018-07-06T18:42:25.390Z,3.58
2018-07-06T18:47:22.212Z,3.00
2018-07-06T18:52:19.253Z,2.90
2018-07-06T18:57:16.160Z,3.20
2018-07-06T19:02:13.073Z,3.00
2018-07-06T19:07:10.209Z,3.45
2018-07-06T19:12:07.029Z,3.00
2018-07-06T19:17:03.943Z,2.92
2018-07-06T19:22:00.935Z,3.50
2018-07-06T19:26:59.126Z,3.12
2018-07-06T19:31:56.250Z,8.00
2018-07-06T19:36:53.459Z,4.17
2018-07-06T19:41:50.202Z,4.78
2018-07-06T19:46:47.152Z,4.25
2018-07-06T19:51:44.053Z,3.65
2018-07-06T19:56:41.193Z,4.00
2018-07-06T20:01:38.080Z,4.40
2018-07-06T20:06:35.142Z,6.53
2018-07-06T20:11:31.910Z,4.83
2018-07-06T20:16:29.339Z,4.50
2018-07-06T20:21:28.663Z,3.80
2018-07-06T20:26:25.747Z,4.62
2018-07-06T20:31:23.400Z,4.67
2018-07-06T20:36:20.467Z,4.47
2018-07-06T20:41:17.411Z,4.58
2018-07-06T20:46:14.591Z,4.42
2018-07-06T20:51:11.331Z,4.20
2018-07-06T20:56:08.210Z,4.25
2018-07-06T21:01:05.584Z,4.40
2018-07-06T21:06:02.550Z,4.40
2018-07-06T21:10:59.364Z,4.62
2018-07-06T21:15:56.490Z,4.30
2018-07-06T21:20:53.479Z,4.77
2018-07-06T21:25:50.802Z,5.17
2018-07-06T21:30:48.027Z,5.25
2018-07-06T21:35:45.342Z,5.50
2018-07-06T21:40:43.324Z,4.97
2018-07-06T21:45:40.113Z,5.50
2018-07-06T21:50:37.580Z,5.93
2018-07-06T21:55:34.418Z,5.93
2018-07-06T22:00:37.183Z,6.33
2018-07-06T22:05:34.106Z,6.20
2018-07-06T22:10:31.457Z,6.30
2018-07-06T22:15:46.648Z,6.13
2018-07-06T22:20:44.501Z,5.80
2018-07-06T22:25:41.908Z,7.00
2018-07-06T22:30:38.886Z,7.03
2018-07-06T22:35:35.867Z,6.93
2018-07-06T22:40:32.777Z,7.40
2018-07-06T22:45:29.958Z,7.77
2018-07-06T22:50:26.737Z,7.77
2018-07-06T22:55:23.677Z,7.03
2018-07-06T23:00:20.488Z,7.83
2018-07-06T23:05:19.174Z,8.00
2018-07-06T23:10:15.845Z,7.70
2018-07-06T23:15:12.861Z,8.20
2018-07-06T23:20:09.663Z,8.03
2018-07-06T23:25:06.875Z,7.63
2018-07-06T23:30:04.339Z,8.13
2018-07-06T23:35:01.455Z,8.07
2018-07-06T23:39:58.521Z,9.03
2018-07-06T23:44:55.548Z,8.30
2018-07-06T23:49:52.311Z,8.93
2018-07-06T23:54:49.491Z,8.70
2018-07-06T23:59:46.224Z,9.30
